Time;durP1;ratioP1;P1;durP2;ratioP2;P2;SDS_P1;SDS_P2;PMS_P1;PMS_P2;Temp;Humidity;BMP_temperature;BMP_pressure;BME280_temperature;BME280_humidity;BME280_pressure;Samples;Min_cycle;Max_cycle;Signal;HPM_P1;HPM_P2
2022/07/15 00:00:56;;;;;;;4.13;1.85;;;;;;;11.69;73.51;98965.53;4137508;28;20042;-71
2022/07/15 00:02:56;;;;;;;2.50;1.52;;;;;;;11.61;73.43;98968.56;4138989;28;20049;-71
2022/07/15 00:04:57;;;;;;;8.05;1.67;;;;;;;11.58;73.06;98960.97;4137811;28;20450;-71
2022/07/15 00:06:57;;;;;;;4.03;2.00;;;;;;;11.43;74.03;98963.56;4137121;28;20046;-71
2022/07/15 00:08:57;;;;;;;2.63;1.42;;;;;;;11.38;74.21;98960.28;4136927;28;20030;-71
2022/07/15 00:10:58;;;;;;;5.15;2.60;;;;;;;11.31;74.77;98962.94;4136395;28;20045;-71
2022/07/15 00:13:01;;;;;;;3.25;1.73;;;;;;;11.26;75.51;98969.59;4139138;28;20058;-71
2022/07/15 00:15:01;;;;;;;2.78;1.80;;;;;;;11.25;74.88;98965.22;4137079;28;20045;-71
2022/07/15 00:17:02;;;;;;;4.25;1.85;;;;;;;11.25;74.97;98962.44;4137809;28;20995;-71
2022/07/15 00:19:02;;;;;;;2.85;1.60;;;;;;;11.28;73.59;98963.69;4137255;28;20041;-71
2022/07/15 00:21:02;;;;;;;3.47;2.28;;;;;;;11.24;75.53;98961.66;4137595;28;20053;-71
2022/07/15 00:23:05;;;;;;;4.05;1.88;;;;;;;11.24;76.17;98974.69;4137003;28;20212;-71
2022/07/15 00:25:06;;;;;;;2.28;1.60;;;;;;;11.23;74.82;98962.81;4138154;28;20379;-71
2022/07/15 00:27:07;;;;;;;2.22;1.50;;;;;;;11.18;74.77;98962.34;4138736;28;20672;-71
2022/07/15 00:29:07;;;;;;;3.20;1.55;;;;;;;11.12;74.89;98959.09;4135941;28;20081;-71
2022/07/15 00:31:07;;;;;;;2.88;1.80;;;;;;;11.01;75.50;98968.38;4134159;28;20054;-71
2022/07/15 00:33:09;;;;;;;1.67;1.55;;;;;;;10.96;75.65;98964.75;4137566;28;20033;-71
2022/07/15 00:35:10;;;;;;;2.22;1.83;;;;;;;10.83;76.42;98966.06;4135241;28;20077;-71
2022/07/15 00:37:11;;;;;;;4.35;1.80;;;;;;;10.83;74.66;98971.59;4138880;28;20120;-71
2022/07/15 00:39:11;;;;;;;2.72;1.88;;;;;;;10.79;75.45;98964.41;4136953;28;20050;-71
2022/07/15 00:41:11;;;;;;;4.07;1.75;;;;;;;10.80;74.59;98971.56;4136001;28;20075;-71
2022/07/15 00:43:13;;;;;;;2.78;1.90;;;;;;;10.80;75.03;98966.03;4137995;28;20442;-71
2022/07/15 00:45:18;;;;;;;4.80;1.73;;;;;;;10.74;75.78;98957.22;4138605;28;20064;-71
2022/07/15 00:47:19;;;;;;;3.60;1.90;;;;;;;10.72;76.08;98970.63;4137180;28;20046;-71
2022/07/15 00:49:19;;;;;;;4.65;1.70;;;;;;;10.66;77.08;98964.56;4135860;28;20053;-70
2022/07/15 00:51:20;;;;;;;3.70;1.90;;;;;;;10.60;77.43;98965.25;4137113;28;20033;-70
2022/07/15 00:53:21;;;;;;;2.78;1.70;;;;;;;10.50;78.15;98957.53;4137146;28;20062;-70
2022/07/15 00:55:23;;;;;;;3.55;2.13;;;;;;;10.54;76.96;98959.22;4136683;28;20050;-70
2022/07/15 00:57:24;;;;;;;5.93;2.40;;;;;;;10.50;78.31;98963.06;4137891;28;20764;-70
2022/07/15 00:59:32;;;;;;;2.28;1.67;;;;;;;10.47;78.05;98961.03;4134219;28;20046;-70
2022/07/15 01:01:35;;;;;;;3.15;1.80;;;;;;;10.47;77.96;98958.28;4137020;28;20046;-70
2022/07/15 01:03:36;;;;;;;3.53;1.75;;;;;;;10.46;77.67;98964.97;4137867;28;20077;-70
2022/07/15 01:05:37;;;;;;;3.63;1.50;;;;;;;10.45;76.62;98966.16;4136937;28;20046;-70
2022/07/15 01:07:38;;;;;;;3.00;1.77;;;;;;;10.48;76.57;98963.44;4137852;28;20240;-70
2022/07/15 01:09:39;;;;;;;5.47;2.15;;;;;;;10.43;76.56;98963.75;4136139;28;20137;-70
2022/07/15 01:11:39;;;;;;;2.45;1.75;;;;;;;10.36;78.18;98969.94;4135960;28;20081;-70
2022/07/15 01:13:40;;;;;;;2.75;1.88;;;;;;;10.35;79.28;98964.78;4137114;28;20290;-70
2022/07/15 01:15:40;;;;;;;2.60;1.73;;;;;;;10.29;79.68;98977.28;4137750;28;20060;-70
2022/07/15 01:17:41;;;;;;;3.53;1.70;;;;;;;10.40;76.63;98965.25;4136388;28;20053;-70
2022/07/15 01:19:41;;;;;;;2.13;1.92;;;;;;;10.40;79.49;98968.03;4135261;28;20050;-70
2022/07/15 01:21:42;;;;;;;2.45;1.67;;;;;;;10.59;76.68;98971.94;4133979;28;20069;-70
2022/07/15 01:23:42;;;;;;;2.30;1.40;;;;;;;10.68;75.67;98973.34;4136708;28;20050;-70
2022/07/15 01:25:44;;;;;;;5.10;1.90;;;;;;;10.80;75.50;98975.13;4137892;28;20491;-70
2022/07/15 01:27:44;;;;;;;3.37;2.17;;;;;;;10.86;75.82;98978.41;4135189;28;20034;-70
2022/07/15 01:29:45;;;;;;;2.38;1.80;;;;;;;10.84;75.49;98976.00;4136024;28;20042;-71
2022/07/15 01:31:45;;;;;;;8.52;2.30;;;;;;;10.83;75.64;98979.13;4135633;28;20091;-70
2022/07/15 01:33:46;;;;;;;3.78;2.00;;;;;;;10.71;78.15;98971.00;4136695;28;20478;-70
2022/07/15 01:35:47;;;;;;;2.42;1.92;;;;;;;10.64;77.97;98979.97;4136376;28;20045;-70
2022/07/15 01:37:47;;;;;;;5.18;2.05;;;;;;;10.57;77.92;98983.38;4136927;28;20445;-70
2022/07/15 01:39:47;;;;;;;3.88;1.45;;;;;;;10.54;76.63;98973.06;4134427;28;20494;-70
2022/07/15 01:41:48;;;;;;;3.08;1.90;;;;;;;10.44;78.16;98983.91;4136196;28;20057;-70
2022/07/15 01:43:48;;;;;;;2.58;1.90;;;;;;;10.38;78.50;98975.09;4135874;28;20471;-70
2022/07/15 01:45:49;;;;;;;2.58;2.13;;;;;;;10.36;78.55;98974.69;4136902;28;20545;-70
2022/07/15 01:47:50;;;;;;;3.65;1.90;;;;;;;10.19;79.52;98983.38;4137316;28;20037;-70
2022/07/15 01:49:50;;;;;;;3.13;1.85;;;;;;;10.14;79.24;98984.44;4134440;28;20065;-70
2022/07/15 01:51:53;;;;;;;5.07;2.15;;;;;;;10.06;78.70;98980.72;4134555;28;20121;-70
2022/07/15 01:53:53;;;;;;;;;;;;;;;10.04;78.82;98985.03;4136146;28;20050;-70
2022/07/15 01:55:54;;;;;;;3.55;1.95;;;;;;;10.00;79.57;98990.47;4135173;28;20008;-70
2022/07/15 01:57:54;;;;;;;3.42;1.80;;;;;;;9.84;80.87;98987.75;4136136;28;20080;-70
2022/07/15 01:59:55;;;;;;;3.90;1.88;;;;;;;9.73;82.10;98985.91;4134238;28;20072;-70
2022/07/15 02:01:57;;;;;;;2.42;1.80;;;;;;;9.65;83.28;98982.19;4135686;28;20111;-71
2022/07/15 02:03:57;;;;;;;2.28;1.95;;;;;;;9.62;83.82;98982.13;4136155;28;20053;-70
2022/07/15 02:05:58;;;;;;;3.83;2.30;;;;;;;9.53;84.64;98982.31;4136580;28;20038;-70
2022/07/15 02:07:59;;;;;;;3.55;2.22;;;;;;;9.52;84.76;98981.50;4135886;28;20148;-70
2022/07/15 02:10:00;;;;;;;3.42;2.13;;;;;;;9.53;84.79;98988.63;4135423;28;20102;-70
2022/07/15 02:12:00;;;;;;;8.73;2.65;;;;;;;9.56;85.42;98981.59;4134978;28;20048;-70
2022/07/15 02:14:01;;;;;;;4.57;2.10;;;;;;;9.61;85.76;98988.81;4134464;28;20038;-70
2022/07/15 02:16:02;;;;;;;3.60;2.50;;;;;;;9.61;85.37;98984.09;4136133;28;20046;-71
2022/07/15 02:18:04;;;;;;;3.97;2.10;;;;;;;9.64;85.42;98988.88;4136952;28;20317;-70
2022/07/15 02:20:04;;;;;;;4.57;2.20;;;;;;;9.60;85.01;98993.53;4135654;28;20687;-71
2022/07/15 02:22:05;;;;;;;5.30;2.35;;;;;;;9.56;85.37;98998.16;4134843;28;20068;-70
2022/07/15 02:24:05;;;;;;;2.50;1.77;;;;;;;9.53;85.28;99002.44;4136241;28;20037;-70
2022/07/15 02:26:06;;;;;;;2.40;1.83;;;;;;;9.50;85.23;99000.38;4136473;28;20470;-70
2022/07/15 02:28:07;;;;;;;4.57;2.20;;;;;;;9.50;85.53;99000.38;4135810;28;20040;-71
2022/07/15 02:30:08;;;;;;;5.28;2.30;;;;;;;9.48;85.80;98991.66;4131347;28;20393;-70
2022/07/15 02:32:08;;;;;;;4.70;2.67;;;;;;;9.50;85.39;99002.34;4136178;28;20450;-71
2022/07/15 02:34:09;;;;;;;5.47;2.10;;;;;;;9.50;85.53;98994.06;4135431;28;20030;-71
2022/07/15 02:36:10;;;;;;;3.50;2.28;;;;;;;9.55;85.79;98996.56;4136815;28;20061;-70
2022/07/15 02:38:11;;;;;;;3.72;2.00;;;;;;;9.47;86.14;98998.34;4136503;28;20037;-70
2022/07/15 02:40:12;;;;;;;3.38;2.38;;;;;;;9.47;86.20;98986.50;4134439;28;20030;-70
2022/07/15 02:42:12;;;;;;;3.42;2.40;;;;;;;9.47;86.72;98995.59;4133717;28;20042;-70
2022/07/15 02:44:14;;;;;;;2.40;1.95;;;;;;;9.50;86.13;98992.09;4135214;28;20272;-70
2022/07/15 02:46:14;;;;;;;2.78;1.88;;;;;;;9.54;86.36;98990.22;4136505;28;20030;-70
2022/07/15 02:48:15;;;;;;;5.15;1.88;;;;;;;9.61;86.37;98988.81;4136725;28;20100;-70
2022/07/15 02:50:15;;;;;;;4.95;2.20;;;;;;;9.69;86.21;98996.91;4134901;28;20139;-70
2022/07/15 02:52:16;;;;;;;4.78;2.20;;;;;;;9.76;85.21;98991.53;4136022;28;20084;-71
2022/07/15 02:54:16;;;;;;;4.82;2.08;;;;;;;9.92;83.86;98997.00;4134164;28;20419;-70
2022/07/15 02:56:16;;;;;;;2.00;1.80;;;;;;;9.98;84.09;98992.00;4135794;28;20141;-70
2022/07/15 02:58:17;;;;;;;3.72;2.20;;;;;;;10.08;83.23;98994.19;4135875;28;20378;-70
2022/07/15 03:00:17;;;;;;;2.30;2.10;;;;;;;10.14;83.53;99001.03;4135463;28;20026;-71
2022/07/15 03:02:18;;;;;;;2.22;1.90;;;;;;;10.26;82.76;99002.88;4133776;28;20029;-70
2022/07/15 03:04:18;;;;;;;5.97;2.20;;;;;;;10.30;82.16;99001.81;4135499;28;20064;-70
2022/07/15 03:06:19;;;;;;;4.20;2.00;;;;;;;10.34;82.89;98996.34;4136514;28;20382;-70
2022/07/15 03:08:20;;;;;;;6.43;2.30;;;;;;;10.40;82.99;99008.72;4136124;28;20347;-70
2022/07/15 03:10:20;;;;;;;4.97;2.33;;;;;;;10.44;81.13;99001.31;4133125;28;20045;-70
2022/07/15 03:12:21;;;;;;;5.82;2.40;;;;;;;10.57;80.03;99002.75;4133760;28;20410;-70
2022/07/15 03:14:21;;;;;;;8.02;2.55;;;;;;;10.73;78.10;99007.41;4135751;28;20065;-71
2022/07/15 03:16:22;;;;;;;3.65;2.22;;;;;;;10.81;78.21;99012.69;4135590;28;20095;-70
2022/07/15 03:18:22;;;;;;;7.43;2.42;;;;;;;10.86;78.77;99019.91;4138087;28;20052;-70
2022/07/15 03:20:23;;;;;;;4.15;2.20;;;;;;;10.87;78.01;99015.97;4138169;28;20480;-70
2022/07/15 03:22:29;;;;;;;4.57;2.30;;;;;;;10.84;79.75;99014.75;4138851;28;20038;-70
2022/07/15 03:24:29;;;;;;;4.90;2.00;;;;;;;10.78;80.92;99015.41;4138622;28;20049;-71
2022/07/15 03:26:30;;;;;;;13.27;2.97;;;;;;;10.69;81.26;99015.66;4137138;28;20034;-71
2022/07/15 03:28:30;;;;;;;7.05;2.85;;;;;;;10.65;82.32;99021.09;4138368;28;20201;-71
2022/07/15 03:30:30;;;;;;;3.92;2.33;;;;;;;10.66;81.19;99019.13;4135517;28;20103;-71
2022/07/15 03:32:31;;;;;;;5.13;2.30;;;;;;;10.65;81.22;99025.81;4138287;28;20050;-71
2022/07/15 03:34:31;;;;;;;6.80;2.35;;;;;;;10.64;82.44;99021.47;4139129;28;20129;-71
2022/07/15 03:36:31;;;;;;;6.22;2.30;;;;;;;10.67;82.37;99024.31;4138300;28;20493;-70
2022/07/15 03:38:32;;;;;;;3.88;2.50;;;;;;;10.69;83.33;99026.72;4137995;28;20806;-71
2022/07/15 03:40:32;;;;;;;4.57;2.30;;;;;;;10.74;82.78;99025.59;4137652;28;20045;-70
2022/07/15 03:42:33;;;;;;;4.68;2.30;;;;;;;10.75;82.86;99032.72;4139423;28;20057;-70
2022/07/15 03:44:33;;;;;;;3.60;2.30;;;;;;;10.75;82.99;99029.97;4138856;28;20042;-71
2022/07/15 03:46:33;;;;;;;4.53;2.10;;;;;;;10.76;83.19;99032.41;4138174;28;20128;-70
2022/07/15 03:48:34;;;;;;;2.75;2.20;;;;;;;10.76;81.80;99037.09;4137552;28;20049;-71
2022/07/15 03:50:35;;;;;;;4.50;2.30;;;;;;;10.82;81.09;99035.66;4136914;28;20054;-70
2022/07/15 03:52:35;;;;;;;5.78;2.00;;;;;;;10.86;80.54;99040.09;4136944;28;20100;-70
2022/07/15 03:54:36;;;;;;;2.53;2.22;;;;;;;10.92;80.58;99038.63;4138825;28;20049;-70
2022/07/15 03:56:36;;;;;;;7.40;2.38;;;;;;;10.93;80.38;99029.16;4134480;28;20049;-70
2022/07/15 03:58:37;;;;;;;5.18;2.20;;;;;;;10.99;80.45;99040.72;4137315;28;21001;-71
2022/07/15 04:00:37;;;;;;;3.22;2.10;;;;;;;11.06;79.19;99034.50;4136815;28;20101;-70
2022/07/15 04:02:38;;;;;;;4.72;2.00;;;;;;;11.12;79.36;99039.38;4137021;28;20058;-71
2022/07/15 04:04:38;;;;;;;6.82;2.47;;;;;;;11.14;79.63;99048.13;4138247;28;20530;-70
2022/07/15 04:06:39;;;;;;;11.15;2.58;;;;;;;11.19;80.08;99039.53;4136818;28;20042;-70
2022/07/15 04:08:39;;;;;;;4.28;2.20;;;;;;;11.22;79.22;99044.31;4138406;28;20064;-71
2022/07/15 04:10:39;;;;;;;5.63;3.30;;;;;;;11.25;78.83;99040.81;4137534;28;20077;-71
2022/07/15 04:12:41;;;;;;;8.27;2.45;;;;;;;11.28;80.41;99053.13;4137801;28;20051;-71
2022/07/15 04:14:41;;;;;;;4.60;2.00;;;;;;;11.28;80.02;99047.59;4136933;28;20450;-70
2022/07/15 04:16:41;;;;;;;6.85;2.58;;;;;;;11.29;79.73;99045.63;4136297;28;20147;-69
2022/07/15 04:18:42;;;;;;;6.57;2.70;;;;;;;11.31;79.79;99054.34;4137306;28;20053;-70
2022/07/15 04:20:42;;;;;;;2.47;1.80;;;;;;;11.30;80.11;99048.00;4134269;28;20057;-71
2022/07/15 04:22:46;;;;;;;3.85;2.30;;;;;;;11.34;79.79;99048.09;4136336;28;20048;-71
2022/07/15 04:24:47;;;;;;;3.53;2.40;;;;;;;11.37;79.40;99047.34;4135647;28;21078;-70
2022/07/15 04:26:47;;;;;;;7.20;2.63;;;;;;;11.40;78.32;99041.06;4136519;28;20038;-70
2022/07/15 04:28:48;;;;;;;5.20;2.72;;;;;;;11.44;79.72;99047.47;4135871;28;20061;-70
2022/07/15 04:30:49;;;;;;;4.05;2.20;;;;;;;11.44;80.17;99062.13;4134195;28;20105;-70
2022/07/15 04:32:50;;;;;;;5.88;3.33;;;;;;;11.45;81.92;99060.16;4136546;28;20452;-70
2022/07/15 04:34:50;;;;;;;2.85;2.38;;;;;;;11.46;81.31;99058.97;4134632;28;20038;-71
2022/07/15 04:36:51;;;;;;;3.58;2.40;;;;;;;11.48;81.01;99057.44;4134692;28;20225;-70
2022/07/15 04:38:51;;;;;;;5.35;2.75;;;;;;;11.51;81.51;99067.00;4135609;28;20049;-70
2022/07/15 04:40:52;;;;;;;5.85;2.35;;;;;;;11.54;80.83;99071.78;4134948;28;20074;-71
2022/07/15 04:42:52;;;;;;;3.10;2.20;;;;;;;11.60;79.44;99063.97;4134922;28;20233;-70
2022/07/15 04:44:53;;;;;;;3.70;2.22;;;;;;;11.67;79.15;99050.22;4133808;28;20479;-70
2022/07/15 04:46:53;;;;;;;3.90;2.35;;;;;;;11.74;79.63;99055.88;4137610;28;20052;-70
2022/07/15 04:51:12;;;;;;;3.25;2.40;;;;;;;11.85;79.82;99065.19;4136793;28;20138;-71
2022/07/15 04:53:13;;;;;;;5.60;2.65;;;;;;;11.88;81.25;99069.19;4137717;28;20833;-70
2022/07/15 04:55:14;;;;;;;4.55;2.25;;;;;;;11.91;81.25;99073.97;4135445;28;20135;-70
2022/07/15 04:57:15;;;;;;;3.13;1.98;;;;;;;11.89;80.93;99077.13;4137907;28;20423;-71
2022/07/15 04:59:15;;;;;;;4.18;2.10;;;;;;;11.90;80.40;99072.38;4135882;28;20541;-70
2022/07/15 05:01:15;;;;;;;4.25;2.00;;;;;;;11.93;80.28;99072.47;4125927;28;20113;-70
2022/07/15 05:03:16;;;;;;;2.28;2.08;;;;;;;11.99;79.93;99072.91;4113589;28;20081;-70
2022/07/15 05:05:16;;;;;;;8.13;2.10;;;;;;;12.05;78.61;99079.75;4106305;28;20046;-71
2022/07/15 05:07:17;;;;;;;3.83;2.22;;;;;;;12.08;79.28;99071.50;4132448;28;20056;-71
2022/07/15 05:09:17;;;;;;;4.18;2.10;;;;;;;12.13;79.36;99073.13;4135166;28;20049;-70
2022/07/15 05:11:18;;;;;;;5.10;2.10;;;;;;;12.16;79.87;99074.34;4136086;28;20037;-71
2022/07/15 05:13:18;;;;;;;2.63;2.38;;;;;;;12.19;79.83;99077.19;4136862;28;20096;-71
2022/07/15 05:15:19;;;;;;;2.65;1.98;;;;;;;12.28;79.24;99086.03;4135935;28;20056;-71
2022/07/15 05:17:19;;;;;;;3.05;1.92;;;;;;;12.30;79.24;99083.69;4137634;28;20129;-70
2022/07/15 05:19:20;;;;;;;6.38;2.17;;;;;;;12.37;79.01;99080.22;4136367;28;20075;-71
2022/07/15 05:21:20;;;;;;;2.22;1.92;;;;;;;12.39;79.05;99075.09;4137650;28;20397;-71
2022/07/15 05:23:20;;;;;;;3.33;2.10;;;;;;;12.42;79.05;99076.34;4135934;28;20046;-71
2022/07/15 05:25:21;;;;;;;2.50;1.90;;;;;;;12.47;78.66;99081.53;4136245;28;20060;-70
2022/07/15 05:27:21;;;;;;;3.08;2.03;;;;;;;12.55;78.67;99089.59;4135442;28;20125;-71
2022/07/15 05:29:22;;;;;;;2.33;1.88;;;;;;;12.60;78.36;99083.72;4134980;28;20548;-71
2022/07/15 05:31:22;;;;;;;2.30;1.85;;;;;;;12.62;78.97;99086.91;4133944;28;20057;-71
2022/07/15 05:33:22;;;;;;;3.53;1.95;;;;;;;12.68;78.57;99087.38;4136397;28;20663;-71
2022/07/15 05:35:23;;;;;;;3.63;1.90;;;;;;;12.74;78.08;99090.59;4136514;28;20049;-71
2022/07/15 05:37:23;;;;;;;5.80;2.05;;;;;;;12.79;78.02;99087.50;4137444;28;20132;-71
2022/07/15 05:39:24;;;;;;;2.17;1.98;;;;;;;12.85;77.68;99091.56;4137019;28;20065;-71
2022/07/15 05:41:24;;;;;;;3.13;1.77;;;;;;;12.89;77.09;99090.41;4137306;28;20375;-71
2022/07/15 05:43:25;;;;;;;4.30;1.95;;;;;;;12.98;76.95;99095.66;4136039;28;20500;-71
2022/07/15 05:45:25;;;;;;;5.40;2.30;;;;;;;13.03;76.25;99097.31;4136718;28;20660;-71
2022/07/15 05:47:27;;;;;;;4.93;2.13;;;;;;;13.11;75.85;99085.91;4137405;28;20042;-71
2022/07/15 05:49:27;;;;;;;6.78;1.65;;;;;;;13.20;75.76;99083.66;4134575;28;20474;-71
2022/07/15 05:51:28;;;;;;;7.07;2.58;;;;;;;13.26;75.54;99086.91;4136947;28;20476;-71
2022/07/15 05:53:28;;;;;;;3.35;2.03;;;;;;;13.34;75.02;99085.78;4136936;28;20128;-71
2022/07/15 05:55:29;;;;;;;3.13;2.00;;;;;;;13.37;75.33;99085.00;4136853;28;20284;-71
2022/07/15 05:57:29;;;;;;;4.22;1.90;;;;;;;13.37;74.54;99087.00;4136843;28;20046;-71
2022/07/15 05:59:31;;;;;;;4.75;2.03;;;;;;;13.53;74.02;99087.56;4135691;28;20046;-71
2022/07/15 06:01:31;;;;;;;4.07;2.27;;;;;;;13.74;74.23;99095.31;4136073;28;20050;-71
2022/07/15 06:03:32;;;;;;;4.60;1.85;;;;;;;13.85;73.56;99096.19;4136121;28;20071;-71
2022/07/15 06:05:32;;;;;;;4.05;1.73;;;;;;;14.02;72.95;99086.38;4136330;28;20066;-71
2022/07/15 06:07:33;;;;;;;2.42;2.00;;;;;;;14.09;73.11;99100.34;4136991;28;20046;-71
2022/07/15 06:09:33;;;;;;;3.83;1.70;;;;;;;14.15;72.79;99104.38;4135534;28;20145;-71
2022/07/15 06:11:34;;;;;;;3.25;1.90;;;;;;;14.24;71.62;99110.38;4136439;28;20136;-71
2022/07/15 06:13:34;;;;;;;9.30;2.10;;;;;;;14.29;72.23;99107.22;4136761;28;20056;-71
2022/07/15 06:15:36;;;;;;;3.33;1.77;;;;;;;14.37;71.57;99112.84;4136972;28;20235;-71
2022/07/15 06:17:37;;;;;;;3.03;1.90;;;;;;;14.48;71.38;99110.94;4136581;28;20041;-71
2022/07/15 06:19:37;;;;;;;4.32;2.10;;;;;;;14.44;71.35;99118.47;4135811;28;20056;-71
2022/07/15 06:21:38;;;;;;;4.82;2.15;;;;;;;14.39;71.46;99111.25;4136730;28;20050;-71
2022/07/15 06:23:38;;;;;;;4.95;2.15;;;;;;;14.57;70.51;99117.00;4136568;28;20345;-71
2022/07/15 06:25:39;;;;;;;2.88;2.22;;;;;;;14.40;71.20;99123.19;4136658;28;20057;-71
2022/07/15 06:27:39;;;;;;;2.45;1.60;;;;;;;14.52;71.14;99117.34;4136611;28;20050;-71
2022/07/15 06:29:40;;;;;;;4.22;2.38;;;;;;;14.45;70.76;99114.47;4135903;28;20053;-71
2022/07/15 06:31:40;;;;;;;2.75;1.98;;;;;;;14.45;70.90;99111.69;4136192;28;20057;-71
2022/07/15 06:33:40;;;;;;;4.45;1.98;;;;;;;14.51;71.17;99119.34;4136108;28;20092;-71
2022/07/15 06:35:41;;;;;;;3.50;1.75;;;;;;;14.65;70.45;99123.41;4136141;28;20044;-71
2022/07/15 06:37:41;;;;;;;3.20;1.73;;;;;;;14.57;70.44;99120.56;4136354;28;20102;-71
2022/07/15 06:39:42;;;;;;;6.78;2.15;;;;;;;14.68;71.22;99119.81;4135753;28;20320;-71
2022/07/15 06:41:42;;;;;;;3.38;1.73;;;;;;;14.92;70.51;99119.16;4135951;28;20132;-71
2022/07/15 06:43:46;;;;;;;7.80;2.40;;;;;;;14.90;69.79;99115.97;4135677;28;20049;-71
2022/07/15 06:45:46;;;;;;;2.95;1.83;;;;;;;15.00;70.16;99115.19;4136434;28;20480;-71
2022/07/15 06:47:46;;;;;;;5.93;1.85;;;;;;;15.06;69.10;99123.97;4136421;28;20125;-71
2022/07/15 06:49:48;;;;;;;3.45;2.10;;;;;;;15.12;69.33;99130.75;4133774;28;20042;-71
2022/07/15 06:51:49;;;;;;;5.75;2.10;;;;;;;15.20;69.22;99135.16;4136260;28;20576;-71
2022/07/15 06:53:49;;;;;;;3.65;1.63;;;;;;;15.27;67.90;99124.03;4141726;28;20042;-71
2022/07/15 06:55:50;;;;;;;3.30;1.55;;;;;;;15.22;67.88;99132.78;4141755;28;20088;-71
2022/07/15 06:57:50;;;;;;;3.35;2.10;;;;;;;15.26;68.01;99130.00;4141729;28;20416;-71
2022/07/15 06:59:51;;;;;;;5.60;1.80;;;;;;;15.27;68.69;99128.81;4141216;28;20186;-71
2022/07/15 07:01:52;;;;;;;6.72;1.80;;;;;;;15.37;68.46;99123.25;4141090;28;20144;-71
2022/07/15 07:03:52;;;;;;;5.00;1.85;;;;;;;15.41;68.62;99128.88;4141959;28;20446;-71
2022/07/15 07:05:52;;;;;;;3.33;1.85;;;;;;;15.37;67.82;99131.63;4141290;28;20053;-71
2022/07/15 07:07:53;;;;;;;2.88;1.80;;;;;;;15.41;67.66;99129.66;4141257;28;20180;-71
2022/07/15 07:09:53;;;;;;;4.95;1.70;;;;;;;15.46;67.60;99132.03;4141276;28;20050;-71
2022/07/15 07:11:53;;;;;;;5.88;1.60;;;;;;;15.50;67.60;99134.06;4141682;28;20189;-71
2022/07/15 07:13:54;;;;;;;4.13;1.83;;;;;;;15.28;67.48;99139.56;4141700;28;20105;-71
2022/07/15 07:15:54;;;;;;;7.50;2.00;;;;;;;15.36;67.89;99135.63;4139438;28;20049;-71
2022/07/15 07:17:55;;;;;;;7.50;2.30;;;;;;;15.46;68.19;99126.47;4140911;28;20073;-71
2022/07/15 07:19:55;;;;;;;3.17;1.80;;;;;;;15.52;68.28;99134.47;4141211;28;20046;-71
2022/07/15 07:21:56;;;;;;;6.38;2.05;;;;;;;15.56;66.77;99136.06;4141683;28;20049;-71
2022/07/15 07:23:57;;;;;;;5.85;2.28;;;;;;;15.45;67.21;99135.25;4141167;28;20045;-71
2022/07/15 07:25:58;;;;;;;2.80;1.50;;;;;;;15.41;66.79;99134.44;4140734;28;20100;-71
2022/07/15 07:28:03;;;;;;;3.05;2.13;;;;;;;15.33;67.11;99138.41;4140332;28;20045;-71
2022/07/15 07:30:04;;;;;;;3.38;1.75;;;;;;;15.25;68.30;99136.78;4140081;28;20100;-71
2022/07/15 07:32:05;;;;;;;4.80;1.83;;;;;;;15.17;68.90;99139.53;4141240;28;20052;-71
2022/07/15 07:34:05;;;;;;;3.45;1.70;;;;;;;15.20;68.53;99137.16;4141450;28;20116;-71
2022/07/15 07:36:06;;;;;;;5.05;1.58;;;;;;;15.06;68.17;99135.94;4141930;28;20053;-71
2022/07/15 07:38:09;;;;;;;2.70;1.52;;;;;;;15.10;68.46;99136.72;4141414;28;20530;-71
2022/07/15 07:40:09;;;;;;;4.22;2.05;;;;;;;15.12;68.33;99134.34;4141030;28;20462;-71
2022/07/15 07:42:10;;;;;;;4.25;1.80;;;;;;;15.05;67.94;99123.16;4142030;28;20049;-71
2022/07/15 07:44:10;;;;;;;2.40;2.00;;;;;;;15.04;69.06;99134.69;4140699;28;20115;-71
2022/07/15 07:46:12;;;;;;;4.32;2.20;;;;;;;15.03;68.22;99124.75;4141013;28;21000;-71
2022/07/15 07:48:13;;;;;;;3.65;1.95;;;;;;;15.07;68.70;99129.16;4141294;28;20056;-71
2022/07/15 07:50:13;;;;;;;6.25;2.08;;;;;;;15.04;68.94;99135.50;4140149;28;20042;-71
2022/07/15 07:52:15;;;;;;;3.65;2.10;;;;;;;15.05;69.19;99127.94;4140450;28;20045;-71
2022/07/15 07:54:17;;;;;;;3.15;2.25;;;;;;;15.05;69.07;99125.94;4140192;28;20042;-71
2022/07/15 07:56:17;;;;;;;3.97;2.20;;;;;;;15.01;69.61;99127.94;4142006;28;20030;-71
2022/07/15 07:58:20;;;;;;;2.53;1.73;;;;;;;15.01;69.34;99124.34;4140082;28;20393;-71
2022/07/15 08:00:21;;;;;;;4.40;1.95;;;;;;;15.05;69.64;99133.50;4140624;28;20273;-71
2022/07/15 08:02:22;;;;;;;4.78;1.90;;;;;;;15.05;69.75;99134.31;4140746;28;20360;-71
2022/07/15 08:04:22;;;;;;;3.55;2.13;;;;;;;15.09;69.53;99137.13;4137077;28;20526;-71
2022/07/15 08:06:23;;;;;;;5.55;2.80;;;;;;;15.09;69.76;99135.13;4138133;28;20038;-71
2022/07/15 08:08:23;;;;;;;3.95;1.90;;;;;;;15.10;69.41;99128.38;4137695;28;20625;-71
2022/07/15 08:10:24;;;;;;;5.28;2.40;;;;;;;15.10;69.37;99135.94;4138714;28;20049;-71
2022/07/15 08:12:24;;;;;;;3.85;2.10;;;;;;;15.20;68.77;99137.94;4138233;28;20397;-71
2022/07/15 08:14:24;;;;;;;4.47;1.85;;;;;;;15.24;68.71;99138.78;4138093;28;20490;-71
2022/07/15 08:16:25;;;;;;;4.95;1.73;;;;;;;15.39;68.49;99136.81;4138505;28;20038;-71
2022/07/15 08:18:25;;;;;;;3.20;1.98;;;;;;;15.51;67.58;99142.03;4137830;28;21078;-71
2022/07/15 08:20:26;;;;;;;3.58;2.35;;;;;;;15.63;66.78;99141.66;4138813;28;20440;-71
2022/07/15 08:22:26;;;;;;;3.40;1.90;;;;;;;15.73;66.27;99140.91;4137564;28;20473;-71
2022/07/15 08:24:26;;;;;;;4.85;1.90;;;;;;;15.64;66.23;99136.91;4138014;28;20118;-71
2022/07/15 08:26:27;;;;;;;8.32;2.72;;;;;;;15.81;65.80;99150.09;4138073;28;20054;-71
2022/07/15 08:28:27;;;;;;;3.65;2.00;;;;;;;15.81;64.89;99138.13;4137137;28;20217;-71
2022/07/15 08:30:29;;;;;;;5.68;2.10;;;;;;;15.83;64.96;99138.53;4137853;28;20037;-71
2022/07/15 08:32:29;;;;;;;5.77;2.10;;;;;;;15.91;64.87;99145.72;4137632;28;20501;-71
2022/07/15 08:34:30;;;;;;;4.10;1.65;;;;;;;15.96;64.66;99146.09;4138054;28;20030;-71
2022/07/15 08:36:30;;;;;;;5.55;2.13;;;;;;;15.91;64.45;99143.72;4138957;28;20362;-71
2022/07/15 08:38:31;;;;;;;4.25;1.80;;;;;;;15.78;64.72;99147.28;4137814;28;20069;-71
2022/07/15 08:40:31;;;;;;;3.38;1.95;;;;;;;15.90;65.44;99138.53;4138012;28;20054;-71
2022/07/15 08:42:32;;;;;;;6.05;1.73;;;;;;;15.82;65.42;99142.50;4136718;28;20373;-71
2022/07/15 08:44:33;;;;;;;5.20;2.10;;;;;;;15.96;65.24;99137.72;4137605;28;20042;-71
2022/07/15 08:46:35;;;;;;;2.35;1.70;;;;;;;16.11;64.89;99137.72;4138039;28;20054;-71
2022/07/15 08:48:37;;;;;;;5.72;2.35;;;;;;;16.13;64.33;99130.53;4137515;28;20248;-71
2022/07/15 08:50:37;;;;;;;3.85;2.28;;;;;;;16.32;64.33;99136.94;4137014;28;20401;-71
2022/07/15 08:52:38;;;;;;;3.90;1.95;;;;;;;16.37;63.43;99139.31;4137713;28;20089;-72
2022/07/15 08:54:39;;;;;;;4.75;2.20;;;;;;;16.66;63.14;99131.69;4135969;28;20048;-71
2022/07/15 08:56:39;;;;;;;6.95;1.95;;;;;;;16.87;62.16;99131.63;4138017;28;20049;-71
2022/07/15 08:58:40;;;;;;;4.70;1.95;;;;;;;16.98;60.89;99132.41;4136676;28;20390;-71
2022/07/15 09:00:40;;;;;;;9.25;2.22;;;;;;;16.94;62.14;99133.63;4137998;28;20093;-71
2022/07/15 09:02:41;;;;;;;4.40;1.70;;;;;;;17.02;61.57;99132.38;4137217;28;20045;-72
2022/07/15 09:05:21;;;;;;;6.75;1.70;;;;;;;16.97;60.85;99125.22;4136768;28;20073;-71
2022/07/15 09:07:22;;;;;;;3.58;1.60;;;;;;;17.18;60.05;99131.91;4136044;28;20038;-71
2022/07/15 09:09:40;;;;;;;5.07;1.60;;;;;;;17.42;58.16;99129.00;4137243;28;20510;-72
2022/07/15 09:11:40;;;;;;;3.45;1.70;;;;;;;17.32;57.00;99131.84;4137303;28;20499;-71
2022/07/15 09:13:41;;;;;;;2.40;1.50;;;;;;;17.41;53.69;99124.59;4137480;28;20345;-71
2022/07/15 09:15:41;;;;;;;3.42;1.50;;;;;;;17.56;53.70;99122.53;4137097;28;20065;-71
2022/07/15 09:17:41;;;;;;;3.88;1.83;;;;;;;17.49;53.39;99130.97;4137521;28;20042;-71
2022/07/15 09:20:06;;;;;;;2.92;1.70;;;;;;;17.42;51.90;99129.00;4136958;28;20057;-71
2022/07/15 09:22:06;;;;;;;3.03;1.77;;;;;;;17.52;53.11;99124.53;4131818;28;20049;-71
2022/07/15 09:24:18;;;;;;;3.92;1.48;;;;;;;17.65;52.09;99113.66;4137470;28;20389;-72
2022/07/15 09:26:33;;;;;;;5.03;1.65;;;;;;;17.86;50.23;99121.94;4135592;28;20030;-71
2022/07/15 09:28:40;;;;;;;3.55;1.48;;;;;;;17.91;50.61;99117.91;4136828;28;20085;-72
2022/07/15 09:37:56;;;;;;;3.15;1.50;;;;;;;18.19;48.71;99111.25;4137298;28;20313;-71
2022/07/15 09:39:58;;;;;;;3.45;1.50;;;;;;;18.01;49.55;99117.03;4135551;28;20070;-71